Time;durP1;ratioP1;P1;durP2;ratioP2;P2;SDS_P1;SDS_P2;PMS_P1;PMS_P2;Temp;Humidity;BMP_temperature;BMP_pressure;BME280_temperature;BME280_humidity;BME280_pressure;Samples;Min_cycle;Max_cycle;Signal;HPM_P1;HPM_P2
2021/09/14 00:01:05;;;;;;;13.82;9.90;;;12.60;99.90;;;;;;5073413;28;20039;-76
2021/09/14 00:03:30;;;;;;;14.32;9.65;;;12.60;99.90;;;;;;5072187;28;20188;-77
2021/09/14 00:05:56;;;;;;;12.43;9.02;;;12.70;99.90;;;;;;5071967;28;20078;-76
2021/09/14 00:08:22;;;;;;;12.00;9.90;;;12.70;99.90;;;;;;5074034;28;20024;-76
2021/09/14 00:10:48;;;;;;;13.27;9.32;;;12.80;99.90;;;;;;5108245;28;20031;-76
2021/09/14 00:13:13;;;;;;;13.02;9.68;;;12.80;99.90;;;;;;5093485;28;20103;-76
2021/09/14 00:15:39;;;;;;;16.77;9.52;;;12.80;99.90;;;;;;5093397;28;20024;-76
2021/09/14 00:18:05;;;;;;;13.95;10.13;;;12.80;99.90;;;;;;5093146;28;20028;-76
2021/09/14 00:20:31;;;;;;;16.73;11.75;;;12.80;99.90;;;;;;5092210;28;20433;-76
2021/09/14 00:22:57;;;;;;;12.13;10.63;;;12.70;99.90;;;;;;5081619;28;20368;-76
2021/09/14 00:25:23;;;;;;;14.25;10.52;;;12.80;99.90;;;;;;5071812;28;20020;-76
2021/09/14 00:27:48;;;;;;;14.77;10.57;;;12.80;99.90;;;;;;5073463;28;20020;-76
2021/09/14 00:30:14;;;;;;;12.98;9.98;;;12.80;99.90;;;;;;5084208;28;20424;-76
2021/09/14 00:32:40;;;;;;;11.48;9.30;;;12.80;99.90;;;;;;5106534;28;20038;-77
2021/09/14 00:35:06;;;;;;;14.20;9.40;;;12.80;99.90;;;;;;5071633;28;20024;-75
2021/09/14 00:37:32;;;;;;;12.23;9.38;;;12.70;99.90;;;;;;5071612;28;20044;-75
2021/09/14 00:39:58;;;;;;;9.68;8.55;;;12.70;99.90;;;;;;5072847;28;20020;-76
2021/09/14 00:42:23;;;;;;;12.95;10.05;;;12.70;99.90;;;;;;5092121;28;20022;-76
2021/09/14 00:44:49;;;;;;;12.05;9.38;;;12.70;99.90;;;;;;5089676;28;20491;-76
2021/09/14 00:47:15;;;;;;;12.43;8.88;;;12.80;99.90;;;;;;5108700;28;20016;-76
2021/09/14 00:49:41;;;;;;;13.02;9.50;;;12.80;99.90;;;;;;5078325;28;20142;-76
2021/09/14 00:52:10;;;;;;;14.88;8.65;;;12.80;99.90;;;;;;5078552;28;20039;-76
2021/09/14 00:54:37;;;;;;;14.07;9.15;;;12.80;99.90;;;;;;5082648;28;20033;-76
2021/09/14 00:57:04;;;;;;;13.88;9.07;;;12.80;99.90;;;;;;5080475;28;20058;-76
2021/09/14 00:59:30;;;;;;;11.25;9.02;;;12.80;99.90;;;;;;5087769;28;20024;-76
2021/09/14 01:01:55;;;;;;;13.95;9.98;;;12.80;99.90;;;;;;5091986;28;20017;-76
2021/09/14 01:04:21;;;;;;;13.45;9.48;;;12.80;99.90;;;;;;5085258;28;20043;-75
2021/09/14 01:06:47;;;;;;;12.90;10.57;;;12.70;99.90;;;;;;5076809;28;20488;-76
2021/09/14 01:09:14;;;;;;;14.75;10.10;;;12.80;99.90;;;;;;5089834;28;20035;-75
2021/09/14 01:11:40;;;;;;;13.55;10.40;;;12.70;99.90;;;;;;5090398;28;20414;-75
2021/09/14 01:14:09;;;;;;;14.45;10.50;;;12.70;99.90;;;;;;5095598;28;20039;-76
2021/09/14 01:16:36;;;;;;;14.77;10.02;;;12.70;99.90;;;;;;5085429;28;20024;-76
2021/09/14 01:19:06;;;;;;;14.20;10.07;;;12.70;99.90;;;;;;5075141;28;20025;-76
2021/09/14 01:21:32;;;;;;;17.65;10.90;;;12.70;99.90;;;;;;5076450;28;20082;-75
2021/09/14 01:23:59;;;;;;;14.70;10.13;;;12.70;99.90;;;;;;5076417;28;20095;-76
2021/09/14 01:26:26;;;;;;;16.17;11.13;;;12.70;99.90;;;;;;5086652;28;20127;-75
2021/09/14 01:28:52;;;;;;;16.65;10.93;;;12.60;99.90;;;;;;5095288;28;20016;-76
2021/09/14 01:31:18;;;;;;;16.15;12.18;;;12.60;99.90;;;;;;5095345;28;20535;-75
2021/09/14 01:33:53;;;;;;;14.88;10.18;;;12.60;99.90;;;;;;5096540;28;20027;-76
2021/09/14 01:36:20;;;;;;;15.00;11.30;;;12.60;99.90;;;;;;5096630;28;20056;-76
2021/09/14 01:38:46;;;;;;;13.48;10.55;;;12.60;99.90;;;;;;5092638;28;20036;-76
2021/09/14 01:41:12;;;;;;;17.75;10.27;;;12.60;99.90;;;;;;5074741;28;20036;-75
2021/09/14 01:43:40;;;;;;;15.40;11.10;;;12.50;99.90;;;;;;5095308;28;20024;-76
2021/09/14 01:46:07;;;;;;;14.25;11.13;;;12.50;99.90;;;;;;5089884;28;20028;-75
2021/09/14 01:48:33;;;;;;;14.55;10.27;;;12.50;99.90;;;;;;5075996;28;20074;-76
2021/09/14 01:50:58;;;;;;;18.67;10.93;;;12.50;99.90;;;;;;5075828;28;20111;-75
2021/09/14 01:53:26;;;;;;;12.00;9.73;;;12.40;99.90;;;;;;5074653;28;20016;-76
2021/09/14 01:55:53;;;;;;;14.18;10.95;;;12.40;99.90;;;;;;5090681;28;20120;-75
2021/09/14 01:58:20;;;;;;;12.57;11.02;;;12.40;99.90;;;;;;5094775;28;20119;-76
2021/09/14 03:00:31;;;;;;;9.05;7.55;;;12.00;99.90;;;;;;5074985;28;20082;-75
2021/09/14 03:02:57;;;;;;;7.25;6.55;;;12.00;99.90;;;;;;5073992;28;20417;-77
2021/09/14 03:05:22;;;;;;;7.25;6.55;;;11.90;99.90;;;;;;5085986;28;20381;-75
2021/09/14 03:07:48;;;;;;;7.72;6.95;;;11.90;99.90;;;;;;5098243;28;20059;-76
2021/09/14 03:10:14;;;;;;;9.10;8.10;;;11.90;99.90;;;;;;5073124;28;20099;-76
2021/09/14 03:12:39;;;;;;;14.23;8.98;;;11.90;99.90;;;;;;5085181;28;20492;-76
2021/09/14 03:15:06;;;;;;;14.02;8.18;;;11.80;99.90;;;;;;5109931;28;20017;-75
2021/09/14 03:17:31;;;;;;;8.50;7.20;;;11.90;99.90;;;;;;5094502;28;20036;-76
2021/09/14 03:19:57;;;;;;;9.23;7.55;;;11.80;99.90;;;;;;5090617;28;20017;-76
2021/09/14 03:22:23;;;;;;;12.05;8.48;;;11.90;99.90;;;;;;5072463;28;20028;-76
2021/09/14 03:24:48;;;;;;;13.20;9.52;;;11.80;99.90;;;;;;5073982;28;20067;-76
2021/09/14 03:27:14;;;;;;;14.77;8.77;;;11.80;99.90;;;;;;5072829;28;20171;-75
2021/09/14 03:29:39;;;;;;;14.07;8.57;;;11.80;99.90;;;;;;5073979;28;20095;-76
2021/09/14 03:32:05;;;;;;;16.67;9.60;;;11.80;99.90;;;;;;5072717;28;20094;-76
2021/09/14 03:34:31;;;;;;;16.88;9.80;;;11.70;99.90;;;;;;5079634;28;20036;-75
2021/09/14 03:36:57;;;;;;;18.63;11.07;;;11.70;99.90;;;;;;5081679;28;20012;-75
2021/09/14 03:39:22;;;;;;;11.23;8.30;;;11.70;99.90;;;;;;5086602;28;20474;-75
2021/09/14 03:41:48;;;;;;;11.13;8.93;;;11.70;99.90;;;;;;5072458;28;20020;-76
2021/09/14 03:44:14;;;;;;;13.90;9.27;;;11.60;99.90;;;;;;5092129;28;20028;-75
2021/09/14 03:46:39;;;;;;;10.95;9.00;;;11.60;99.90;;;;;;5109722;28;20024;-77
2021/09/14 03:49:05;;;;;;;14.88;8.98;;;11.50;99.90;;;;;;5090195;28;20474;-77
2021/09/14 03:51:30;;;;;;;12.25;9.05;;;11.50;99.90;;;;;;5070975;28;21034;-75
2021/09/14 03:53:56;;;;;;;13.55;8.52;;;11.50;99.90;;;;;;5072660;28;20379;-77
2021/09/14 03:56:22;;;;;;;20.67;9.50;;;11.40;99.90;;;;;;5073175;28;20043;-76
2021/09/14 03:58:47;;;;;;;14.13;8.57;;;11.40;99.90;;;;;;5086146;28;20028;-75
2021/09/14 04:01:13;;;;;;;14.88;9.48;;;11.40;99.90;;;;;;5073352;28;20382;-75
2021/09/14 04:03:41;;;;;;;18.33;10.30;;;11.40;99.90;;;;;;5091218;28;20020;-76
2021/09/14 04:08:56;;;;;;;13.82;8.82;;;11.30;99.90;;;;;;5072670;28;20040;-76
2021/09/14 04:11:23;;;;;;;19.60;9.82;;;11.20;99.90;;;;;;5091924;28;20032;-76
2021/09/14 04:13:52;;;;;;;11.80;8.65;;;11.20;99.90;;;;;;5092176;28;20027;-76
2021/09/14 04:16:19;;;;;;;13.40;8.63;;;11.20;99.90;;;;;;5093393;28;20474;-75
2021/09/14 04:18:44;;;;;;;11.18;7.82;;;11.10;99.90;;;;;;5109042;28;20059;-75
2021/09/14 04:21:10;;;;;;;15.35;8.43;;;11.10;99.90;;;;;;5109024;28;20473;-76
2021/09/14 04:23:36;;;;;;;12.68;9.02;;;11.00;99.90;;;;;;5109018;28;20020;-76
2021/09/14 04:26:02;;;;;;;12.13;8.90;;;11.00;99.90;;;;;;5093049;28;20021;-76
2021/09/14 04:28:28;;;;;;;21.00;10.32;;;10.90;99.90;;;;;;5092907;28;20024;-76
2021/09/14 04:30:54;;;;;;;15.73;9.10;;;10.90;99.90;;;;;;5073227;28;20393;-76
2021/09/14 04:33:19;;;;;;;14.90;10.10;;;10.80;99.90;;;;;;5087353;28;20413;-76
2021/09/14 04:35:45;;;;;;;11.13;8.73;;;10.80;99.90;;;;;;5072024;28;20021;-76
2021/09/14 04:38:11;;;;;;;10.60;8.40;;;10.90;99.90;;;;;;5074447;28;20102;-77
2021/09/14 04:40:37;;;;;;;16.38;10.85;;;10.80;99.90;;;;;;5072857;28;20029;-76
2021/09/14 04:43:02;;;;;;;17.50;10.18;;;10.80;99.90;;;;;;5071898;28;20116;-76
2021/09/14 04:45:28;;;;;;;12.63;8.77;;;10.80;99.90;;;;;;5072007;28;20056;-76
2021/09/14 04:47:54;;;;;;;11.60;8.80;;;10.80;99.90;;;;;;5086790;28;20056;-77
2021/09/14 04:50:20;;;;;;;18.98;9.80;;;10.90;99.90;;;;;;5072466;28;20024;-75
2021/09/14 04:52:45;;;;;;;18.85;9.73;;;10.80;99.90;;;;;;5072842;28;20467;-75
2021/09/14 04:55:11;;;;;;;18.45;10.20;;;10.90;99.90;;;;;;5091000;28;20499;-75
2021/09/14 04:57:37;;;;;;;9.70;8.15;;;10.90;99.90;;;;;;5081423;28;20086;-75
2021/09/14 05:00:04;;;;;;;17.60;10.25;;;10.90;99.90;;;;;;5080462;28;20016;-75
2021/09/14 05:02:30;;;;;;;14.70;10.02;;;11.00;99.90;;;;;;5091659;28;20055;-75
2021/09/14 05:04:57;;;;;;;18.23;12.00;;;11.00;99.90;;;;;;5077109;28;20064;-76
2021/09/14 05:07:22;;;;;;;13.40;11.05;;;11.00;99.90;;;;;;5082708;28;20056;-76
2021/09/14 05:09:48;;;;;;;15.25;10.05;;;11.00;99.90;;;;;;5083974;28;20067;-76
2021/09/14 05:12:14;;;;;;;11.00;9.63;;;11.10;99.90;;;;;;5092024;28;20016;-77
2021/09/14 05:14:40;;;;;;;14.07;9.95;;;11.00;99.90;;;;;;5091512;28;20362;-76
2021/09/14 05:17:05;;;;;;;13.32;9.13;;;11.00;99.90;;;;;;5085337;28;20024;-77
2021/09/14 05:19:37;;;;;;;19.10;10.60;;;11.00;99.90;;;;;;5086163;28;20036;-76
2021/09/14 05:22:04;;;;;;;15.38;8.57;;;11.10;99.90;;;;;;5073238;28;20067;-76
2021/09/14 05:24:31;;;;;;;11.77;8.57;;;11.10;99.90;;;;;;5070450;28;20121;-76
2021/09/14 05:26:57;;;;;;;16.60;6.82;;;11.20;99.90;;;;;;5108049;28;20021;-76
2021/09/14 05:29:24;;;;;;;11.65;6.25;;;11.20;99.90;;;;;;5091047;28;20115;-77
2021/09/14 05:31:51;;;;;;;7.85;5.82;;;11.30;99.90;;;;;;5090059;28;20816;-77
2021/09/14 05:34:17;;;;;;;6.50;5.85;;;11.30;99.90;;;;;;5078858;28;20024;-76
2021/09/14 05:36:44;;;;;;;13.23;7.20;;;11.40;99.90;;;;;;5086498;28;20025;-76
2021/09/14 05:39:10;;;;;;;8.80;6.63;;;11.50;99.90;;;;;;5089097;28;20040;-77
2021/09/14 05:41:35;;;;;;;9.73;8.32;;;11.60;99.90;;;;;;5096032;28;20016;-77
2021/09/14 05:44:01;;;;;;;12.35;6.80;;;11.80;99.90;;;;;;5090154;28;20132;-77
2021/09/14 05:46:27;;;;;;;14.57;8.63;;;11.90;99.90;;;;;;5094664;28;20025;-76
2021/09/14 05:48:52;;;;;;;15.25;10.52;;;12.10;99.90;;;;;;5104401;28;20049;-77
2021/09/14 05:51:19;;;;;;;16.92;10.13;;;12.20;99.90;;;;;;5093427;28;20478;-76
2021/09/14 05:53:45;;;;;;;19.90;12.07;;;12.40;99.90;;;;;;5090611;28;20024;-78
2021/09/14 05:56:11;;;;;;;12.85;10.02;;;12.50;99.90;;;;;;5094937;28;20485;-77
2021/09/14 05:58:37;;;;;;;13.60;9.30;;;12.70;99.90;;;;;;5088361;28;20086;-78
2021/09/14 06:01:02;;;;;;;11.30;8.48;;;12.80;99.90;;;;;;5072091;28;20017;-77
2021/09/14 06:03:29;;;;;;;8.77;7.95;;;12.90;99.90;;;;;;5076999;28;20367;-77
2021/09/14 06:05:56;;;;;;;13.45;10.23;;;13.00;99.90;;;;;;5109775;28;20016;-77
2021/09/14 06:08:22;;;;;;;12.48;9.50;;;13.20;99.90;;;;;;5089504;28;20486;-77
2021/09/14 06:10:48;;;;;;;11.85;9.85;;;13.30;99.90;;;;;;5073306;28;20473;-77
2021/09/14 06:13:14;;;;;;;11.95;9.93;;;13.50;99.90;;;;;;5081075;28;20043;-78
2021/09/14 06:15:40;;;;;;;12.80;10.20;;;13.70;99.90;;;;;;5093427;28;20028;-77
2021/09/14 06:18:06;;;;;;;12.82;9.75;;;13.90;99.90;;;;;;5091641;28;20035;-78
2021/09/14 06:20:32;;;;;;;12.35;9.68;;;14.00;99.90;;;;;;5077182;28;20032;-77
2021/09/14 06:22:58;;;;;;;13.18;9.43;;;14.20;99.90;;;;;;5074448;28;20023;-77
2021/09/14 06:25:24;;;;;;;10.50;9.40;;;14.40;99.90;;;;;;5077849;28;20489;-77
2021/09/14 06:27:50;;;;;;;14.77;10.88;;;14.60;99.90;;;;;;5081322;28;20389;-77
2021/09/14 06:30:16;;;;;;;12.57;9.65;;;14.80;99.90;;;;;;5073866;28;20016;-77
2021/09/14 06:32:42;;;;;;;12.35;10.45;;;15.10;99.90;;;;;;5083097;28;20032;-77
2021/09/14 06:35:08;;;;;;;15.23;12.07;;;15.20;99.90;;;;;;5094017;28;20030;-77
2021/09/14 06:37:33;;;;;;;15.23;12.85;;;15.50;99.90;;;;;;5095183;28;20067;-77
2021/09/14 06:39:59;;;;;;;16.00;11.10;;;15.60;99.90;;;;;;5095231;28;20101;-77
2021/09/14 06:42:28;;;;;;;14.85;11.00;;;15.90;99.90;;;;;;5095397;28;20028;-77
2021/09/14 06:44:54;;;;;;;16.60;11.43;;;16.10;99.90;;;;;;5093776;28;20016;-77
2021/09/14 06:47:20;;;;;;;16.33;12.52;;;16.30;99.90;;;;;;5095155;28;20020;-77
2021/09/14 06:49:45;;;;;;;13.40;10.95;;;16.40;99.90;;;;;;5093785;28;20115;-77
2021/09/14 06:52:11;;;;;;;16.80;12.00;;;16.60;99.90;;;;;;5095085;28;20439;-77
2021/09/14 06:54:37;;;;;;;15.52;11.55;;;16.70;99.90;;;;;;5086449;28;20012;-77
2021/09/14 06:57:02;;;;;;;17.52;12.48;;;16.90;99.90;;;;;;5073950;28;20087;-77
2021/09/14 06:59:28;;;;;;;15.98;11.30;;;17.00;99.90;;;;;;5080958;28;20077;-77
2021/09/14 07:01:54;;;;;;;16.85;10.82;;;17.20;99.90;;;;;;5083881;28;20032;-78
2021/09/14 07:04:19;;;;;;;12.93;10.35;;;17.40;99.90;;;;;;5085002;28;20091;-77
2021/09/14 07:06:48;;;;;;;12.18;10.65;;;17.50;99.90;;;;;;5074537;28;20028;-78
2021/09/14 07:09:13;;;;;;;13.75;10.48;;;17.60;99.90;;;;;;5085235;28;20107;-77
2021/09/14 07:11:39;;;;;;;17.00;10.38;;;17.80;99.90;;;;;;5080861;28;20039;-77
2021/09/14 07:14:04;;;;;;;14.50;9.55;;;18.00;99.90;;;;;;5093364;28;20438;-78
2021/09/14 07:16:30;;;;;;;12.60;9.73;;;18.10;99.90;;;;;;5080089;28;20037;-77
2021/09/14 07:18:56;;;;;;;15.07;9.85;;;18.20;99.90;;;;;;5075433;28;20036;-79
2021/09/14 07:21:21;;;;;;;11.05;9.38;;;18.30;99.90;;;;;;5107228;28;20051;-78
2021/09/14 07:23:47;;;;;;;11.18;9.65;;;18.40;99.90;;;;;;5074158;28;20028;-79
2021/09/14 07:26:13;;;;;;;13.90;8.90;;;18.40;99.90;;;;;;5074399;28;20036;-78
2021/09/14 07:28:38;;;;;;;11.20;9.18;;;18.60;99.90;;;;;;5110081;28;20023;-78
2021/09/14 07:31:05;;;;;;;15.57;10.68;;;18.80;99.90;;;;;;5094509;28;20048;-78
2021/09/14 07:33:31;;;;;;;14.00;9.88;;;18.80;99.90;;;;;;5090133;28;20482;-78
2021/09/14 07:35:56;;;;;;;17.17;10.23;;;18.90;99.90;;;;;;5095735;28;20026;-78
2021/09/14 07:38:22;;;;;;;14.40;9.80;;;18.80;99.90;;;;;;5077936;28;20027;-78
2021/09/14 07:40:48;;;;;;;13.55;10.43;;;18.80;99.90;;;;;;5109681;28;20039;-78
2021/09/14 07:43:13;;;;;;;12.35;9.32;;;18.80;99.90;;;;;;5089140;28;20025;-78
2021/09/14 07:45:39;;;;;;;17.40;9.73;;;18.80;99.90;;;;;;5087656;28;20024;-78
2021/09/14 07:48:05;;;;;;;12.02;9.05;;;18.80;99.90;;;;;;5073466;28;20379;-77
2021/09/14 07:50:31;;;;;;;12.20;10.02;;;18.80;99.90;;;;;;5093582;28;20530;-77
2021/09/14 07:52:56;;;;;;;11.20;8.80;;;18.80;99.90;;;;;;5091891;28;20394;-79
2021/09/14 07:55:22;;;;;;;13.20;9.18;;;18.80;99.90;;;;;;5072306;28;20379;-78
2021/09/14 07:57:48;;;;;;;14.43;8.20;;;18.80;99.90;;;;;;5072396;28;20062;-77
2021/09/14 08:00:14;;;;;;;22.15;10.25;;;19.10;99.90;;;;;;5090179;28;20023;-78
2021/09/14 08:02:40;;;;;;;11.95;9.32;;;19.20;99.90;;;;;;5086405;28;20024;-78
2021/09/14 08:05:06;;;;;;;11.80;8.65;;;19.40;99.90;;;;;;5071124;28;20156;-78
2021/09/14 08:07:32;;;;;;;12.95;9.32;;;19.50;99.90;;;;;;5093757;28;20016;-78
2021/09/14 08:09:58;;;;;;;12.30;8.63;;;19.60;99.90;;;;;;5090017;28;20028;-78
2021/09/14 08:12:24;;;;;;;12.75;8.50;;;19.60;99.90;;;;;;5072104;28;20074;-78
2021/09/14 08:14:49;;;;;;;13.60;8.80;;;19.70;99.90;;;;;;5089383;28;20024;-78
2021/09/14 08:17:16;;;;;;;11.00;7.97;;;19.70;99.90;;;;;;5099615;28;20500;-78
2021/09/14 08:19:42;;;;;;;11.15;7.18;;;19.90;97.20;;;;;;5072808;28;20028;-78
2021/09/14 08:22:10;;;;;;;9.23;7.25;;;20.10;90.70;;;;;;5092290;28;20358;-78
2021/09/14 08:24:35;;;;;;;8.38;7.47;;;20.10;86.90;;;;;;5102545;28;20052;-78
2021/09/14 08:27:01;;;;;;;7.15;6.13;;;20.40;87.50;;;;;;5093148;28;20024;-78
2021/09/14 08:29:27;;;;;;;9.98;7.15;;;20.50;89.50;;;;;;5095803;28;20468;-78
2021/09/14 08:31:52;;;;;;;9.05;6.47;;;20.50;89.20;;;;;;5074028;28;20077;-79
2021/09/14 08:34:18;;;;;;;8.25;6.47;;;20.60;83.80;;;;;;5088907;28;20028;-78
2021/09/14 08:36:44;;;;;;;8.52;6.47;;;20.60;81.80;;;;;;5093285;28;20088;-79
2021/09/14 08:39:09;;;;;;;7.57;6.30;;;20.60;81.00;;;;;;5087193;28;20036;-79
2021/09/14 08:41:37;;;;;;;7.65;6.20;;;20.50;77.20;;;;;;5071645;28;20020;-78
2021/09/14 08:44:04;;;;;;;8.73;7.32;;;20.70;80.70;;;;;;5079453;28;20480;-78
2021/09/14 08:46:30;;;;;;;8.80;6.13;;;20.70;85.30;;;;;;5076854;28;20023;-78
2021/09/14 08:48:58;;;;;;;22.13;9.15;;;20.90;88.20;;;;;;5073883;28;20099;-78
2021/09/14 08:51:23;;;;;;;9.73;6.90;;;21.10;81.50;;;;;;5071586;28;20031;-78
2021/09/14 08:53:49;;;;;;;6.63;5.93;;;21.10;75.80;;;;;;5074349;28;20024;-78
2021/09/14 08:56:15;;;;;;;9.13;7.00;;;21.20;72.00;;;;;;5108570;28;20496;-78
2021/09/14 08:58:40;;;;;;;10.95;7.65;;;21.40;74.70;;;;;;5088927;28;20032;-78
2021/09/14 09:01:14;;;;;;;8.85;7.30;;;21.40;80.00;;;;;;5072682;28;20029;-78
2021/09/14 09:03:41;;;;;;;8.15;7.30;;;21.50;78.50;;;;;;5073203;28;20016;-78
2021/09/14 09:06:07;;;;;;;8.20;6.68;;;21.20;80.00;;;;;;5091925;28;20055;-78
2021/09/14 09:08:33;;;;;;;10.77;7.28;;;20.90;75.10;;;;;;5076911;28;20056;-78
2021/09/14 09:11:20;;;;;;;8.55;7.65;;;20.80;77.00;;;;;;5092678;28;20024;-78
2021/09/14 09:13:46;;;;;;;9.40;6.72;;;20.70;75.70;;;;;;5082888;28;20043;-78
2021/09/14 09:16:18;;;;;;;8.85;6.78;;;20.50;78.30;;;;;;5072087;28;20111;-78
2021/09/14 09:18:50;;;;;;;10.80;7.10;;;20.40;78.70;;;;;;5073352;28;20059;-78
2021/09/14 09:21:16;;;;;;;11.30;8.60;;;20.20;82.40;;;;;;5095224;28;20032;-78
2021/09/14 09:23:42;;;;;;;8.90;6.60;;;20.10;85.70;;;;;;5104726;28;20024;-78
2021/09/14 09:26:08;;;;;;;9.27;6.43;;;20.00;86.70;;;;;;5083311;28;20043;-78
2021/09/14 09:28:35;;;;;;;8.88;6.80;;;19.90;94.30;;;;;;5107131;28;20031;-77
2021/09/14 09:31:08;;;;;;;9.52;5.97;;;19.70;97.20;;;;;;5074951;28;20486;-78
2021/09/14 09:33:35;;;;;;;7.38;5.63;;;19.60;99.60;;;;;;5104522;28;20091;-77
2021/09/14 09:36:07;;;;;;;9.63;6.13;;;19.60;99.20;;;;;;5096485;28;20038;-77
2021/09/14 09:38:57;;;;;;;10.85;6.40;;;19.40;98.70;;;;;;5095267;28;20036;-78
2021/09/14 09:41:23;;;;;;;7.78;6.13;;;19.40;99.90;;;;;;5087990;28;20028;-78
2021/09/14 09:43:49;;;;;;;9.10;6.22;;;19.30;99.90;;;;;;5075329;28;20386;-78
2021/09/14 09:46:21;;;;;;;7.85;6.03;;;19.30;99.90;;;;;;5078130;28;20028;-77
2021/09/14 09:48:48;;;;;;;9.35;6.18;;;19.40;99.90;;;;;;5110324;28;20371;-78
2021/09/14 09:51:15;;;;;;;12.38;6.07;;;19.30;99.90;;;;;;5095781;28;20028;-77
2021/09/14 09:53:41;;;;;;;23.48;12.98;;;19.40;98.40;;;;;;5103014;28;20428;-78
2021/09/14 09:56:07;;;;;;;13.63;11.30;;;19.50;99.40;;;;;;5075293;28;20046;-78
2021/09/14 09:58:33;;;;;;;11.75;10.75;;;19.40;96.00;;;;;;5078309;28;20040;-77
2021/09/14 10:01:09;;;;;;;10.05;7.18;;;19.40;96.60;;;;;;5094640;28;20030;-77
2021/09/14 10:03:39;;;;;;;11.18;6.90;;;19.40;96.60;;;;;;5079743;28;20103;-77
2021/09/14 10:06:10;;;;;;;12.15;6.35;;;19.50;97.80;;;;;;5096011;28;20023;-77
2021/09/14 10:08:37;;;;;;;7.55;6.68;;;19.60;98.70;;;;;;5086033;28;20053;-78
2021/09/14 10:11:03;;;;;;;8.43;6.20;;;19.70;97.40;;;;;;5074288;28;20466;-77
2021/09/14 10:13:29;;;;;;;7.93;5.68;;;19.60;96.50;;;;;;5086247;28;20048;-77
2021/09/14 10:15:55;;;;;;;7.40;6.50;;;19.80;93.30;;;;;;5074866;28;20021;-77
2021/09/14 10:18:27;;;;;;;9.57;6.15;;;20.10;92.70;;;;;;5074075;28;20040;-77
2021/09/14 10:20:53;;;;;;;9.55;6.65;;;20.50;89.60;;;;;;5095472;28;20020;-77
2021/09/14 10:23:21;;;;;;;8.35;6.05;;;20.80;87.50;;;;;;5092724;28;20035;-77
2021/09/14 10:25:50;;;;;;;6.80;6.03;;;20.80;82.40;;;;;;5074072;28;20039;-77
2021/09/14 10:28:18;;;;;;;10.38;6.05;;;20.70;84.00;;;;;;5093457;28;20031;-78
2021/09/14 10:30:45;;;;;;;6.80;5.65;;;20.80;84.80;;;;;;5078173;28;20107;-77
2021/09/14 10:33:19;;;;;;;8.95;6.40;;;21.00;85.60;;;;;;5084298;28;20032;-78
2021/09/14 10:35:46;;;;;;;8.35;6.70;;;20.90;84.40;;;;;;5111083;28;20559;-77
2021/09/14 10:38:14;;;;;;;11.23;6.65;;;21.00;81.40;;;;;;5093188;28;20405;-77
2021/09/14 10:40:41;;;;;;;7.70;6.38;;;21.20;82.90;;;;;;5111060;28;20093;-78
2021/09/14 10:43:18;;;;;;;10.30;7.32;;;21.10;78.60;;;;;;5093775;28;20036;-77
2021/09/14 10:45:44;;;;;;;7.63;6.63;;;21.10;78.70;;;;;;5111001;28;20081;-78
2021/09/14 10:48:27;;;;;;;9.80;6.80;;;21.20;80.70;;;;;;5079288;28;20020;-77
2021/09/14 10:50:55;;;;;;;7.82;6.72;;;21.40;77.20;;;;;;5110737;28;20032;-78
2021/09/14 10:53:26;;;;;;;9.68;7.70;;;21.20;74.50;;;;;;5094358;28;20017;-78
2021/09/14 10:55:58;;;;;;;7.90;7.07;;;21.10;73.60;;;;;;5110636;28;20056;-78
2021/09/14 10:58:25;;;;;;;9.05;7.47;;;21.30;75.20;;;;;;5092516;28;20045;-78
2021/09/14 11:00:51;;;;;;;8.02;7.22;;;21.10;74.00;;;;;;5094846;28;20023;-77
2021/09/14 11:03:18;;;;;;;7.43;6.40;;;21.10;75.20;;;;;;5091402;28;20083;-78
2021/09/14 11:05:50;;;;;;;8.13;6.85;;;21.20;73.40;;;;;;5074569;28;20025;-77
2021/09/14 11:08:16;;;;;;;;;;;21.30;71.70;;;;;;5076968;28;20112;-78
2021/09/14 11:10:44;;;;;;;12.60;7.22;;;21.10;70.60;;;;;;5094753;28;20402;-77
2021/09/14 11:13:22;;;;;;;10.93;6.65;;;20.90;74.50;;;;;;5107062;28;20020;-78
2021/09/14 11:15:54;;;;;;;6.68;6.05;;;20.80;80.80;;;;;;5073147;28;20090;-77
2021/09/14 11:18:24;;;;;;;7.22;6.07;;;20.60;80.90;;;;;;5073029;28;20036;-77
2021/09/14 11:20:50;;;;;;;7.55;6.03;;;20.60;85.60;;;;;;5093510;28;20031;-77
2021/09/14 11:23:24;;;;;;;12.35;7.28;;;20.60;85.70;;;;;;5090926;28;20023;-77
2021/09/14 11:25:51;;;;;;;10.50;6.18;;;20.50;82.00;;;;;;5087805;28;20390;-78
2021/09/14 11:28:19;;;;;;;7.75;6.78;;;20.30;83.80;;;;;;5091397;28;20035;-78
2021/09/14 11:30:56;;;;;;;9.18;6.90;;;20.30;83.60;;;;;;5081123;28;20030;-77
2021/09/14 11:33:24;;;;;;;9.48;6.93;;;20.40;82.20;;;;;;5090203;28;20154;-77
2021/09/14 11:35:50;;;;;;;9.73;6.88;;;20.50;79.70;;;;;;5093987;28;20027;-78
2021/09/14 11:38:19;;;;;;;8.13;5.57;;;20.50;78.60;;;;;;5093986;28;20039;-78
2021/09/14 11:40:49;;;;;;;7.80;6.35;;;20.60;79.40;;;;;;5109804;28;20012;-78
2021/09/14 11:43:42;;;;;;;8.35;6.15;;;20.70;77.40;;;;;;5108850;28;20035;-78
2021/09/14 11:46:15;;;;;;;10.70;6.93;;;20.80;76.50;;;;;;5081492;28;20036;-78
2021/09/14 11:48:52;;;;;;;8.00;6.53;;;20.90;71.50;;;;;;5077016;28;20024;-78
2021/09/14 11:51:18;;;;;;;8.07;6.25;;;21.10;71.50;;;;;;5109448;28;20359;-77
2021/09/14 11:53:48;;;;;;;7.63;6.85;;;21.30;68.90;;;;;;5093451;28;20039;-78
2021/09/14 11:56:15;;;;;;;7.88;7.05;;;21.30;71.40;;;;;;5084295;28;20456;-78
2021/09/14 11:58:49;;;;;;;6.80;5.88;;;21.40;71.40;;;;;;5077886;28;20112;-78
2021/09/14 12:01:16;;;;;;;6.70;6.05;;;21.60;67.90;;;;;;5090538;28;20020;-78
2021/09/14 12:03:50;;;;;;;10.10;6.50;;;21.60;69.20;;;;;;5081365;28;20020;-77
2021/09/14 12:06:26;;;;;;;8.52;6.00;;;21.40;71.90;;;;;;5093717;28;20024;-78
2021/09/14 12:08:55;;;;;;;9.80;6.38;;;21.40;69.80;;;;;;5092327;28;20039;-77
2021/09/14 12:11:26;;;;;;;9.32;7.97;;;21.40;71.40;;;;;;5093692;28;20077;-77
2021/09/14 12:13:55;;;;;;;13.18;7.45;;;21.40;68.70;;;;;;5103663;28;20028;-77
2021/09/14 12:16:29;;;;;;;8.30;6.70;;;21.50;69.00;;;;;;5092323;28;20027;-78
2021/09/14 12:18:56;;;;;;;7.22;6.53;;;21.60;70.60;;;;;;5090108;28;20028;-78
2021/09/14 12:21:22;;;;;;;8.32;7.05;;;21.70;67.70;;;;;;5108918;28;20031;-78
2021/09/14 12:23:48;;;;;;;8.88;6.60;;;21.90;68.50;;;;;;5095942;28;20119;-78
2021/09/14 12:26:18;;;;;;;9.43;6.70;;;22.00;68.70;;;;;;5108966;28;20016;-78
2021/09/14 12:28:44;;;;;;;12.55;9.57;;;21.90;69.70;;;;;;5107253;28;20032;-78
2021/09/14 12:31:10;;;;;;;12.75;9.52;;;22.00;68.10;;;;;;5108459;28;20020;-77
2021/09/14 12:33:36;;;;;;;7.82;6.97;;;22.10;69.70;;;;;;5095771;28;20024;-78
2021/09/14 12:36:01;;;;;;;12.52;7.22;;;22.00;69.80;;;;;;5071646;28;20123;-78
2021/09/14 12:38:27;;;;;;;9.70;7.10;;;22.00;67.20;;;;;;5074794;28;20474;-78
2021/09/14 12:40:53;;;;;;;8.05;7.05;;;22.00;70.30;;;;;;5093002;28;20075;-77
2021/09/14 12:43:18;;;;;;;10.35;7.03;;;22.10;69.50;;;;;;5088344;28;20494;-78
2021/09/14 12:45:44;;;;;;;10.80;7.10;;;22.10;70.20;;;;;;5078643;28;20109;-78
2021/09/14 12:48:10;;;;;;;10.25;7.80;;;22.10;71.50;;;;;;5092079;28;20478;-77
2021/09/14 12:50:35;;;;;;;8.63;7.80;;;22.20;70.50;;;;;;5092976;28;20430;-77
2021/09/14 12:53:04;;;;;;;7.78;6.85;;;22.30;71.70;;;;;;5073877;28;20028;-78
2021/09/14 12:55:34;;;;;;;8.98;7.53;;;22.50;67.50;;;;;;5072856;28;20471;-76
2021/09/14 12:58:00;;;;;;;8.50;7.32;;;22.60;66.20;;;;;;5086071;28;20032;-77
2021/09/14 13:00:25;;;;;;;11.10;7.57;;;22.70;65.60;;;;;;5076445;28;20035;-76
2021/09/14 13:02:51;;;;;;;9.23;7.85;;;22.70;63.20;;;;;;5091303;28;20070;-79
2021/09/14 13:05:16;;;;;;;9.90;8.00;;;22.60;63.40;;;;;;5091296;28;20059;-77
2021/09/14 13:07:42;;;;;;;7.78;7.00;;;22.40;63.80;;;;;;5091262;28;20021;-79
2021/09/14 13:10:11;;;;;;;12.68;8.18;;;22.30;65.00;;;;;;5089762;28;20028;-78
2021/09/14 13:12:37;;;;;;;8.07;7.28;;;22.20;65.50;;;;;;5105036;28;20062;-77
2021/09/14 13:17:48;;;;;;;8.55;7.10;;;22.20;68.10;;;;;;5092794;28;20042;-77
2021/09/14 13:20:14;;;;;;;8.52;7.63;;;22.20;65.40;;;;;;5080398;28;20108;-78
2021/09/14 13:22:40;;;;;;;8.82;7.50;;;22.20;67.50;;;;;;5071283;28;20436;-78
2021/09/14 13:25:06;;;;;;;8.05;7.25;;;22.20;69.20;;;;;;5088797;28;20414;-78
2021/09/14 13:27:32;;;;;;;9.25;6.40;;;22.00;69.60;;;;;;5092836;28;20051;-78
2021/09/14 13:29:58;;;;;;;10.65;6.75;;;21.70;73.80;;;;;;5086792;28;20028;-78
2021/09/14 13:32:23;;;;;;;7.90;6.50;;;21.50;75.40;;;;;;5108371;28;20016;-78
2021/09/14 13:34:49;;;;;;;10.55;6.55;;;21.30;76.20;;;;;;5088495;28;20028;-77
2021/09/14 13:37:15;;;;;;;7.22;6.53;;;21.30;77.40;;;;;;5108415;28;20024;-78
2021/09/14 13:39:41;;;;;;;9.25;6.93;;;21.30;78.40;;;;;;5100969;28;20017;-78
2021/09/14 13:42:10;;;;;;;9.15;6.28;;;21.20;78.10;;;;;;5102269;28;20378;-78